Time;durP1;ratioP1;P1;durP2;ratioP2;P2;SDS_P1;SDS_P2;PMS_P1;PMS_P2;Temp;Humidity;BMP_temperature;BMP_pressure;BME280_temperature;BME280_humidity;BME280_pressure;Samples;Min_cycle;Max_cycle;Signal;HPM_P1;HPM_P2
2023/08/04 00:00:30;;;;;;;13.20;2.55;;;16.30;99.90;;;;;;5077197;28;20051;-78
2023/08/04 00:02:56;;;;;;;16.73;3.42;;;16.30;99.90;;;;;;5098423;28;20043;-80
2023/08/04 00:05:22;;;;;;;11.00;2.72;;;16.20;99.90;;;;;;5099829;28;20438;-80
2023/08/04 00:07:48;;;;;;;10.77;2.55;;;16.30;99.90;;;;;;5122246;28;20078;-79
2023/08/04 00:10:14;;;;;;;11.00;2.63;;;16.30;99.90;;;;;;5107248;28;20444;-78
2023/08/04 00:12:40;;;;;;;8.05;2.40;;;16.30;99.90;;;;;;5100943;28;20036;-79
2023/08/04 00:15:07;;;;;;;11.48;2.40;;;16.30;99.90;;;;;;5116812;28;20055;-79
2023/08/04 00:17:38;;;;;;;6.75;2.30;;;16.20;99.90;;;;;;5116804;28;20111;-79
2023/08/04 00:20:08;;;;;;;9.40;1.98;;;16.20;99.90;;;;;;5097784;28;20485;-78
2023/08/04 00:22:34;;;;;;;12.07;2.70;;;16.20;99.90;;;;;;5100247;28;20043;-78
2023/08/04 00:25:01;;;;;;;4.95;2.03;;;16.20;99.90;;;;;;5100551;28;20191;-79
2023/08/04 00:27:26;;;;;;;8.93;2.13;;;16.10;99.90;;;;;;5115220;28;20051;-77
2023/08/04 00:29:52;;;;;;;12.27;2.47;;;16.20;99.90;;;;;;5115335;28;20047;-78
2023/08/04 00:32:18;;;;;;;7.00;1.85;;;16.20;99.90;;;;;;5114911;28;20404;-77
2023/08/04 00:34:43;;;;;;;7.93;1.73;;;16.20;99.90;;;;;;5115911;28;20117;-79
2023/08/04 00:37:09;;;;;;;10.88;2.20;;;16.10;99.90;;;;;;5103057;28;20505;-79
2023/08/04 00:39:34;;;;;;;7.38;2.03;;;16.10;99.90;;;;;;5117235;28;20035;-78
2023/08/04 00:42:00;;;;;;;6.00;1.98;;;16.10;99.90;;;;;;5113680;28;20040;-77
2023/08/04 00:44:26;;;;;;;7.38;1.75;;;16.10;99.90;;;;;;5114197;28;20502;-78
2023/08/04 00:46:51;;;;;;;5.28;2.17;;;16.00;99.90;;;;;;5100681;28;20039;-78
2023/08/04 00:49:18;;;;;;;6.35;2.30;;;16.00;99.90;;;;;;5096176;28;20141;-79
2023/08/04 00:51:45;;;;;;;13.10;2.80;;;16.00;99.90;;;;;;5098722;28;20496;-79
2023/08/04 00:54:11;;;;;;;4.28;2.28;;;16.00;99.90;;;;;;5115321;28;20046;-79
2023/08/04 00:56:39;;;;;;;9.45;2.17;;;16.00;99.90;;;;;;5120703;28;20469;-78
2023/08/04 00:59:05;;;;;;;16.33;2.72;;;15.90;99.90;;;;;;5120228;28;20039;-79
2023/08/04 01:01:30;;;;;;;10.80;2.50;;;15.90;99.90;;;;;;5111194;28;20078;-79
2023/08/04 01:03:57;;;;;;;7.95;2.30;;;15.90;99.90;;;;;;5095441;28;20505;-79
2023/08/04 01:06:30;;;;;;;7.40;2.90;;;15.90;99.90;;;;;;5119729;28;20043;-79
2023/08/04 01:09:19;;;;;;;7.32;2.53;;;15.90;99.90;;;;;;5112117;28;20246;-79
2023/08/04 01:11:59;;;;;;;11.75;2.92;;;15.90;99.90;;;;;;5100805;28;20051;-78
2023/08/04 01:14:25;;;;;;;6.60;2.20;;;15.90;99.90;;;;;;5102903;28;20044;-78
2023/08/04 01:16:51;;;;;;;9.20;2.42;;;16.00;99.90;;;;;;5114642;28;20040;-78
2023/08/04 01:19:17;;;;;;;14.80;3.22;;;15.90;99.90;;;;;;5111987;28;20054;-79
2023/08/04 01:21:43;;;;;;;10.18;2.63;;;16.00;99.90;;;;;;5114089;28;20517;-79
2023/08/04 01:24:09;;;;;;;5.78;2.10;;;16.00;99.90;;;;;;5103249;28;20074;-78
2023/08/04 01:26:39;;;;;;;7.72;2.20;;;16.00;99.90;;;;;;5075712;28;20088;-78
2023/08/04 01:29:07;;;;;;;7.80;2.20;;;16.00;99.90;;;;;;5076504;28;20049;-78
2023/08/04 01:31:34;;;;;;;10.27;2.30;;;16.00;99.90;;;;;;5094975;28;20039;-79
2023/08/04 01:34:00;;;;;;;15.13;2.75;;;16.00;99.90;;;;;;5101500;28;20035;-77
2023/08/04 01:36:25;;;;;;;5.93;2.00;;;16.00;99.90;;;;;;5112310;28;20421;-77
2023/08/04 01:38:51;;;;;;;5.78;1.95;;;16.00;99.90;;;;;;5101715;28;20047;-77
2023/08/04 01:41:17;;;;;;;11.05;3.00;;;16.00;99.90;;;;;;5114177;28;20050;-77
2023/08/04 01:43:42;;;;;;;9.73;2.28;;;16.10;99.90;;;;;;5094443;28;20043;-78
2023/08/04 01:46:08;;;;;;;10.02;2.42;;;16.10;99.90;;;;;;5106963;28;20057;-77
2023/08/04 01:48:34;;;;;;;12.05;2.45;;;16.10;99.90;;;;;;5110860;28;20173;-77
2023/08/04 01:50:59;;;;;;;12.77;2.40;;;16.00;99.90;;;;;;5099448;28;20040;-77
2023/08/04 01:53:25;;;;;;;11.82;2.65;;;16.10;99.90;;;;;;5115190;28;20727;-78
2023/08/04 01:55:50;;;;;;;8.57;2.25;;;16.00;99.90;;;;;;5116530;28;20039;-78
2023/08/04 01:58:16;;;;;;;11.48;2.60;;;16.00;99.90;;;;;;5096197;28;20040;-79
2023/08/04 02:00:42;;;;;;;15.70;2.55;;;16.00;99.90;;;;;;5100483;28;20048;-77
2023/08/04 02:03:08;;;;;;;11.90;2.58;;;16.00;99.90;;;;;;5098145;28;20039;-78
2023/08/04 02:05:33;;;;;;;9.20;2.90;;;16.00;99.90;;;;;;5100159;28;20059;-78
2023/08/04 02:07:59;;;;;;;9.20;2.55;;;16.00;99.90;;;;;;5087148;28;20048;-79
2023/08/04 02:10:25;;;;;;;13.60;3.00;;;16.00;99.90;;;;;;5098737;28;20036;-79
2023/08/04 02:12:52;;;;;;;7.75;2.17;;;16.00;99.90;;;;;;5085276;28;20047;-78
2023/08/04 02:15:17;;;;;;;13.05;2.80;;;16.00;99.90;;;;;;5118415;28;20036;-77
2023/08/04 02:17:43;;;;;;;8.85;2.25;;;16.00;99.90;;;;;;5097026;28;20063;-76
2023/08/04 02:20:09;;;;;;;7.82;2.33;;;16.00;99.90;;;;;;5096022;28;20064;-77
2023/08/04 02:22:34;;;;;;;8.18;2.40;;;15.90;99.90;;;;;;5096902;28;20036;-75
2023/08/04 02:25:00;;;;;;;6.82;2.30;;;15.90;99.90;;;;;;5115236;28;20066;-74
2023/08/04 02:27:27;;;;;;;8.10;2.28;;;16.00;99.90;;;;;;5115974;28;20111;-75
2023/08/04 02:29:53;;;;;;;10.18;2.33;;;15.90;99.90;;;;;;5116579;28;20039;-74
2023/08/04 02:32:20;;;;;;;7.53;2.40;;;15.90;99.90;;;;;;5117860;28;20447;-75
2023/08/04 02:34:48;;;;;;;10.50;3.13;;;15.90;99.90;;;;;;5115611;28;20051;-75
2023/08/04 02:37:14;;;;;;;;;;;15.90;99.90;;;;;;5115822;28;20415;-75
2023/08/04 02:39:40;;;;;;;16.63;3.28;;;15.90;99.90;;;;;;5115698;28;19972;-74
2023/08/04 02:42:06;;;;;;;5.13;2.20;;;15.80;99.90;;;;;;5099746;28;20130;-75
2023/08/04 02:44:31;;;;;;;5.93;2.40;;;15.80;99.90;;;;;;5099929;28;20040;-75
2023/08/04 02:46:57;;;;;;;6.32;2.20;;;15.80;99.90;;;;;;5116621;27;20047;-74
2023/08/04 02:49:23;;;;;;;10.20;2.42;;;15.80;99.90;;;;;;5113069;28;20046;-75
2023/08/04 02:51:48;;;;;;;9.40;2.40;;;15.80;99.90;;;;;;5115136;28;20169;-74
2023/08/04 02:54:15;;;;;;;8.95;2.97;;;15.80;99.90;;;;;;5111203;28;20040;-75
2023/08/04 02:56:40;;;;;;;9.25;3.15;;;15.80;99.90;;;;;;5094387;28;20123;-74
2023/08/04 02:59:06;;;;;;;8.25;2.40;;;15.80;99.90;;;;;;5077343;28;20193;-75
2023/08/04 03:01:32;;;;;;;6.43;2.60;;;15.80;99.90;;;;;;5098962;28;20592;-75
2023/08/04 03:03:57;;;;;;;9.30;2.40;;;15.80;99.90;;;;;;5094517;28;20063;-75
2023/08/04 03:06:23;;;;;;;4.25;2.00;;;15.70;99.90;;;;;;5093965;28;20127;-75
2023/08/04 03:08:49;;;;;;;6.47;2.13;;;15.80;99.90;;;;;;5112724;28;20093;-75
2023/08/04 03:11:14;;;;;;;8.90;2.03;;;15.80;99.90;;;;;;5110572;28;20510;-75
2023/08/04 03:13:40;;;;;;;6.95;2.38;;;15.70;99.90;;;;;;5095492;28;20044;-75
2023/08/04 03:16:06;;;;;;;6.30;2.20;;;15.70;99.90;;;;;;5095166;28;20123;-75
2023/08/04 03:18:32;;;;;;;7.07;1.92;;;15.70;99.90;;;;;;5094674;28;20048;-75
2023/08/04 03:21:02;;;;;;;6.15;2.00;;;15.70;99.90;;;;;;5094668;28;20148;-76
2023/08/04 03:23:28;;;;;;;7.60;2.45;;;15.60;99.90;;;;;;5089867;28;20553;-75
2023/08/04 03:25:53;;;;;;;7.05;2.33;;;15.60;99.90;;;;;;5115096;28;20127;-76
2023/08/04 03:28:19;;;;;;;11.32;2.35;;;15.60;99.90;;;;;;5099193;28;20050;-75
2023/08/04 03:30:45;;;;;;;8.10;2.10;;;15.50;99.90;;;;;;5077039;28;20040;-76
2023/08/04 03:33:11;;;;;;;6.63;2.30;;;15.50;99.90;;;;;;5104836;28;20036;-75
2023/08/04 03:35:37;;;;;;;8.73;2.95;;;15.50;99.90;;;;;;5112499;28;20040;-77
2023/08/04 03:38:03;;;;;;;5.28;2.38;;;15.50;99.90;;;;;;5114438;28;20377;-76
2023/08/04 03:40:29;;;;;;;7.53;2.45;;;15.40;99.90;;;;;;5115098;27;20047;-75
2023/08/04 03:42:54;;;;;;;7.90;2.55;;;15.40;99.90;;;;;;5102567;28;20051;-76
2023/08/04 03:45:20;;;;;;;5.75;2.55;;;15.40;99.90;;;;;;5106790;28;20538;-76
2023/08/04 03:47:46;;;;;;;10.88;2.70;;;15.40;99.90;;;;;;5115045;28;20508;-76
2023/08/04 03:50:12;;;;;;;7.57;2.88;;;15.40;99.90;;;;;;5115166;28;20414;-75
2023/08/04 03:52:37;;;;;;;6.80;2.88;;;15.40;99.90;;;;;;5094349;28;20039;-75
2023/08/04 03:55:07;;;;;;;7.68;2.45;;;15.40;99.90;;;;;;5106258;28;20487;-75
2023/08/04 03:57:33;;;;;;;9.15;2.63;;;15.40;99.90;;;;;;5095024;28;20047;-75
2023/08/04 03:59:59;;;;;;;8.82;3.00;;;15.40;99.90;;;;;;5094677;28;20428;-76
2023/08/04 04:02:27;;;;;;;5.60;2.67;;;15.50;99.90;;;;;;5095656;28;20444;-77
2023/08/04 04:04:53;;;;;;;6.22;2.50;;;15.50;99.90;;;;;;5110133;28;20044;-76
2023/08/04 04:07:18;;;;;;;3.88;2.22;;;15.50;99.90;;;;;;5116509;28;20043;-76
2023/08/04 04:09:44;;;;;;;8.93;2.30;;;15.50;99.90;;;;;;5115264;28;20125;-76
2023/08/04 04:12:10;;;;;;;4.38;2.30;;;15.50;99.90;;;;;;5100248;28;20072;-75
2023/08/04 04:14:35;;;;;;;6.70;2.28;;;15.50;99.90;;;;;;5100814;28;20065;-75
2023/08/04 04:17:02;;;;;;;5.97;2.03;;;15.40;99.90;;;;;;5119463;28;20035;-77
2023/08/04 04:19:28;;;;;;;7.63;2.40;;;15.50;99.90;;;;;;5103625;28;20071;-75
2023/08/04 04:21:54;;;;;;;2.85;1.77;;;15.40;99.90;;;;;;5097690;28;20413;-76
2023/08/04 04:24:19;;;;;;;3.10;1.83;;;15.30;99.90;;;;;;5114204;28;20107;-76
2023/08/04 04:26:45;;;;;;;5.43;2.70;;;15.40;99.90;;;;;;5109626;28;20047;-76
2023/08/04 04:29:10;;;;;;;4.68;2.17;;;15.40;99.90;;;;;;5094722;28;20036;-76
2023/08/04 04:31:37;;;;;;;11.05;3.17;;;15.30;99.90;;;;;;5097084;28;20448;-75
2023/08/04 04:34:03;;;;;;;4.30;2.30;;;15.30;99.90;;;;;;5112083;28;20039;-76
2023/08/04 04:36:28;;;;;;;8.65;3.13;;;15.40;99.90;;;;;;5100676;28;20050;-76
2023/08/04 04:38:54;;;;;;;9.02;2.70;;;15.40;99.90;;;;;;5116727;28;20043;-76
2023/08/04 04:41:20;;;;;;;5.90;2.70;;;15.40;99.90;;;;;;5117279;28;20048;-75
2023/08/04 04:43:45;;;;;;;7.53;2.83;;;15.30;99.90;;;;;;5093454;28;20052;-75
2023/08/04 04:46:11;;;;;;;7.15;2.67;;;15.30;99.90;;;;;;5100638;28;20401;-75
2023/08/04 04:48:37;;;;;;;8.73;2.80;;;15.30;99.90;;;;;;5104637;28;20048;-76
2023/08/04 04:51:02;;;;;;;6.63;3.03;;;15.40;99.90;;;;;;5078663;28;20043;-75
2023/08/04 04:53:28;;;;;;;6.32;2.65;;;15.40;99.90;;;;;;5101350;28;20031;-75
2023/08/04 04:55:56;;;;;;;6.70;2.70;;;15.40;99.90;;;;;;5114001;28;20050;-75
2023/08/04 04:58:21;;;;;;;11.65;2.67;;;15.40;99.90;;;;;;5102032;28;20512;-75
2023/08/04 05:00:47;;;;;;;6.97;2.70;;;15.40;99.90;;;;;;5083252;28;20043;-75
2023/08/04 05:03:13;;;;;;;8.60;2.90;;;15.50;99.90;;;;;;5095652;28;20382;-75
2023/08/04 05:05:38;;;;;;;6.50;3.13;;;15.50;99.90;;;;;;5113923;28;20123;-75
2023/08/04 05:08:04;;;;;;;5.80;2.67;;;15.50;99.90;;;;;;5091477;28;20050;-76
2023/08/04 05:10:30;;;;;;;7.30;2.47;;;15.00;99.90;;;;;;5094145;28;20047;-75
2023/08/04 05:12:56;;;;;;;6.95;2.63;;;15.50;99.90;;;;;;5076744;28;20050;-75
2023/08/04 05:15:21;;;;;;;7.25;2.83;;;15.60;99.90;;;;;;5094159;28;20079;-75
2023/08/04 05:17:47;;;;;;;6.78;2.78;;;15.50;99.90;;;;;;5092291;28;20040;-76
2023/08/04 05:20:13;;;;;;;7.65;3.03;;;15.60;99.90;;;;;;5111846;28;20485;-77
2023/08/04 05:22:43;;;;;;;7.15;2.90;;;15.60;99.90;;;;;;5114107;28;20070;-77
2023/08/04 05:25:08;;;;;;;6.28;2.47;;;15.70;99.90;;;;;;5111882;28;20497;-76
2023/08/04 05:27:34;;;;;;;4.35;2.35;;;15.60;99.90;;;;;;5113671;28;20043;-77
2023/08/04 05:30:01;;;;;;;3.78;2.30;;;15.70;99.90;;;;;;5099893;28;20076;-76
2023/08/04 05:32:27;;;;;;;7.38;2.75;;;15.70;99.90;;;;;;5111868;28;20043;-76
2023/08/04 05:34:53;;;;;;;5.53;2.30;;;15.80;99.90;;;;;;5116497;28;20130;-76
2023/08/04 05:37:18;;;;;;;3.60;2.30;;;15.80;99.90;;;;;;5097056;28;20119;-77
2023/08/04 05:39:45;;;;;;;4.43;2.55;;;15.80;99.90;;;;;;5106478;28;20047;-76
2023/08/04 05:42:11;;;;;;;4.75;2.17;;;15.80;99.90;;;;;;5117369;28;20096;-75
2023/08/04 05:44:36;;;;;;;6.30;2.78;;;15.90;99.90;;;;;;5116445;28;20477;-75
2023/08/04 05:47:02;;;;;;;4.70;2.88;;;15.80;99.90;;;;;;5098288;28;20047;-76
2023/08/04 05:49:30;;;;;;;7.43;2.72;;;15.90;99.90;;;;;;5114826;28;20035;-75
2023/08/04 05:51:56;;;;;;;7.97;2.65;;;15.90;99.90;;;;;;5111990;28;20107;-75
2023/08/04 05:54:22;;;;;;;4.38;2.45;;;15.90;99.90;;;;;;5101543;28;20135;-76
2023/08/04 05:56:47;;;;;;;5.43;2.55;;;15.90;99.90;;;;;;5109801;28;20040;-76
2023/08/04 05:59:13;;;;;;;4.95;2.42;;;16.00;99.90;;;;;;5096928;28;20115;-76
2023/08/04 06:01:39;;;;;;;6.18;2.83;;;16.00;99.90;;;;;;5108235;28;20442;-76
2023/08/04 06:04:05;;;;;;;5.35;2.20;;;16.00;99.90;;;;;;5112923;28;20055;-78
2023/08/04 06:06:30;;;;;;;4.68;2.40;;;16.10;99.90;;;;;;5095351;28;20043;-77
2023/08/04 06:08:56;;;;;;;9.02;2.72;;;16.10;99.90;;;;;;5115847;28;20048;-76
2023/08/04 06:11:22;;;;;;;6.78;2.85;;;16.10;99.90;;;;;;5111008;28;20405;-76
2023/08/04 06:13:47;;;;;;;10.18;2.92;;;16.10;99.90;;;;;;5113892;28;20048;-77
2023/08/04 06:16:13;;;;;;;6.57;2.50;;;16.20;99.90;;;;;;5078249;28;20043;-77
2023/08/04 06:18:39;;;;;;;9.43;2.63;;;16.20;99.90;;;;;;5099573;28;20482;-77
2023/08/04 06:21:04;;;;;;;9.00;2.65;;;16.30;99.90;;;;;;5095798;28;20168;-77
2023/08/04 06:23:30;;;;;;;8.68;2.35;;;16.30;99.90;;;;;;5110404;28;20409;-75
2023/08/04 06:25:56;;;;;;;6.10;2.63;;;16.30;99.90;;;;;;5115443;28;20043;-76
2023/08/04 06:28:21;;;;;;;3.08;2.10;;;16.40;99.90;;;;;;5115025;28;20382;-76
2023/08/04 06:30:47;;;;;;;5.20;2.25;;;16.40;99.90;;;;;;5115303;28;20489;-76
2023/08/04 06:33:13;;;;;;;4.68;2.05;;;16.40;99.90;;;;;;5114861;28;20044;-76
2023/08/04 06:35:41;;;;;;;6.03;2.35;;;16.40;99.90;;;;;;5099567;28;20048;-76
2023/08/04 06:38:08;;;;;;;12.35;2.63;;;16.50;99.90;;;;;;5094271;28;20051;-76
2023/08/04 06:40:34;;;;;;;5.13;2.30;;;16.50;99.90;;;;;;5115167;28;20055;-76
2023/08/04 06:43:00;;;;;;;9.05;2.95;;;16.60;99.90;;;;;;5112918;28;20039;-77
2023/08/04 06:45:27;;;;;;;4.63;2.10;;;16.60;99.90;;;;;;5101763;28;20052;-76
2023/08/04 06:47:53;;;;;;;6.47;2.35;;;16.60;99.90;;;;;;5095860;28;20047;-77
2023/08/04 06:50:19;;;;;;;6.35;2.20;;;16.70;99.90;;;;;;5095445;28;20069;-77
2023/08/04 06:52:45;;;;;;;9.73;2.45;;;16.70;99.90;;;;;;5096657;28;20063;-76
2023/08/04 06:55:10;;;;;;;9.43;2.50;;;16.80;99.90;;;;;;5098833;28;20037;-77
2023/08/04 06:57:36;;;;;;;7.90;2.50;;;16.90;99.90;;;;;;5114661;28;20503;-78
2023/08/04 07:00:03;;;;;;;6.60;2.30;;;16.90;99.90;;;;;;5116330;28;20448;-78
2023/08/04 07:02:28;;;;;;;7.72;2.70;;;17.30;99.90;;;;;;5097978;28;20043;-76
2023/08/04 07:04:54;;;;;;;8.20;2.38;;;17.00;99.90;;;;;;5104268;28;20134;-77
2023/08/04 07:07:21;;;;;;;5.63;2.28;;;17.10;99.90;;;;;;5109105;28;20485;-76
2023/08/04 07:09:49;;;;;;;6.28;2.30;;;17.10;99.90;;;;;;5107827;28;20123;-77
2023/08/04 07:12:15;;;;;;;8.15;2.40;;;17.20;99.90;;;;;;5095969;28;20117;-77
2023/08/04 07:14:40;;;;;;;8.02;2.38;;;17.20;99.90;;;;;;5099021;28;20085;-77
2023/08/04 07:17:06;;;;;;;9.90;2.75;;;17.30;99.90;;;;;;5103253;28;20044;-77
2023/08/04 07:19:32;;;;;;;6.78;2.70;;;17.30;99.90;;;;;;5099609;28;20048;-77
2023/08/04 07:21:57;;;;;;;5.78;2.72;;;17.30;99.90;;;;;;5099485;28;20101;-77
2023/08/04 07:24:25;;;;;;;6.93;2.60;;;17.40;99.90;;;;;;5111092;28;20043;-77
2023/08/04 07:26:50;;;;;;;8.65;2.53;;;17.30;99.90;;;;;;5118732;28;20047;-77
2023/08/04 07:29:16;;;;;;;5.35;2.60;;;17.30;99.90;;;;;;5101219;28;20039;-78
2023/08/04 07:31:42;;;;;;;7.13;2.40;;;17.30;99.90;;;;;;5111188;28;20046;-77
2023/08/04 07:34:07;;;;;;;8.30;3.08;;;17.30;99.90;;;;;;5103078;28;20095;-78
2023/08/04 07:36:33;;;;;;;7.75;2.53;;;17.30;99.90;;;;;;5102683;28;20036;-77
2023/08/04 07:38:59;;;;;;;10.40;2.88;;;17.30;99.90;;;;;;5102820;28;20423;-77
2023/08/04 07:41:25;;;;;;;6.82;2.40;;;17.40;99.90;;;;;;5117146;28;20040;-77
2023/08/04 07:43:51;;;;;;;9.55;2.65;;;17.40;99.90;;;;;;5114339;28;20462;-76
2023/08/04 07:46:26;;;;;;;8.50;2.67;;;17.40;99.90;;;;;;5096867;28;20036;-77
2023/08/04 07:48:53;;;;;;;7.85;2.53;;;17.40;99.90;;;;;;5101853;28;20031;-77
2023/08/04 07:51:19;;;;;;;6.22;2.67;;;17.40;99.90;;;;;;5114923;28;20489;-76
2023/08/04 07:53:45;;;;;;;10.27;2.72;;;17.40;99.90;;;;;;5100542;28;20532;-77
2023/08/04 07:56:10;;;;;;;11.30;2.80;;;17.40;99.90;;;;;;5112583;28;20051;-77
2023/08/04 07:58:36;;;;;;;13.82;2.97;;;17.30;99.90;;;;;;5115298;28;20047;-76
2023/08/04 08:01:05;;;;;;;7.65;2.20;;;17.40;99.90;;;;;;5102638;28;20054;-76
2023/08/04 08:03:35;;;;;;;7.97;2.53;;;17.40;99.90;;;;;;5093514;28;20457;-76
2023/08/04 08:06:02;;;;;;;8.20;2.47;;;17.20;99.90;;;;;;5111139;28;20084;-76
2023/08/04 08:08:31;;;;;;;7.10;2.55;;;17.00;99.90;;;;;;5105817;28;20122;-76
2023/08/04 08:10:56;;;;;;;12.63;3.00;;;16.80;99.90;;;;;;5119076;28;20413;-80
2023/08/04 08:13:23;;;;;;;7.13;2.78;;;16.60;99.90;;;;;;5117572;28;20039;-77
2023/08/04 08:15:48;;;;;;;10.90;2.80;;;16.40;99.90;;;;;;5099703;28;20044;-77
2023/08/04 08:18:14;;;;;;;13.43;3.45;;;16.30;99.90;;;;;;5101100;28;20063;-77
2023/08/04 08:20:41;;;;;;;10.77;2.92;;;16.20;99.90;;;;;;5100133;28;20084;-78
2023/08/04 08:23:08;;;;;;;11.73;3.65;;;16.30;99.90;;;;;;5099286;28;20131;-78
2023/08/04 08:25:35;;;;;;;12.52;3.42;;;16.40;99.90;;;;;;5107667;28;20039;-78
2023/08/04 08:28:01;;;;;;;14.70;3.67;;;16.40;99.90;;;;;;5113847;28;20105;-78
2023/08/04 08:30:27;;;;;;;12.93;3.97;;;16.60;99.90;;;;;;5097770;28;20049;-78
2023/08/04 08:32:53;;;;;;;10.07;3.75;;;16.70;99.90;;;;;;5118368;28;20050;-78
2023/08/04 08:35:19;;;;;;;12.50;4.03;;;16.90;99.90;;;;;;5113747;28;20098;-77
2023/08/04 08:37:44;;;;;;;8.98;3.80;;;17.00;99.90;;;;;;5096906;28;20524;-78
2023/08/04 08:40:11;;;;;;;11.45;3.80;;;17.20;99.90;;;;;;5103807;28;20054;-77
2023/08/04 08:42:36;;;;;;;10.88;3.40;;;17.30;99.90;;;;;;5115566;28;20058;-77
2023/08/04 08:45:02;;;;;;;15.25;3.30;;;17.40;99.90;;;;;;5112067;28;20470;-79
2023/08/04 08:47:36;;;;;;;9.65;2.88;;;17.30;99.90;;;;;;5096107;28;20401;-78
2023/08/04 08:50:04;;;;;;;10.63;3.30;;;17.30;99.90;;;;;;5095871;28;20076;-78
2023/08/04 08:52:35;;;;;;;11.73;3.00;;;17.20;99.90;;;;;;5095305;28;20047;-77
2023/08/04 08:55:03;;;;;;;12.07;2.80;;;17.20;99.90;;;;;;5101736;28;20039;-78
2023/08/04 08:57:29;;;;;;;13.85;3.17;;;17.30;99.90;;;;;;5116862;28;20090;-77
2023/08/04 08:59:59;;;;;;;9.60;2.88;;;17.30;99.90;;;;;;5104296;28;20040;-79
2023/08/04 09:02:25;;;;;;;8.80;3.20;;;17.40;99.90;;;;;;5096976;28;20410;-77
2023/08/04 09:04:51;;;;;;;10.88;3.42;;;17.40;99.90;;;;;;5087504;28;20040;-78
2023/08/04 09:07:17;;;;;;;9.45;2.83;;;17.60;99.90;;;;;;5119063;28;20062;-77
2023/08/04 09:09:42;;;;;;;6.78;2.22;;;17.70;99.90;;;;;;5099860;28;20051;-76
2023/08/04 09:12:09;;;;;;;5.65;2.00;;;17.70;99.90;;;;;;5117186;28;20040;-79
2023/08/04 09:14:48;;;;;;;9.85;2.45;;;17.80;99.90;;;;;;5116710;28;20110;-78
2023/08/04 09:17:39;;;;;;;11.02;2.00;;;18.00;99.90;;;;;;5116146;28;20040;-78
2023/08/04 09:20:09;;;;;;;5.40;1.88;;;18.10;99.90;;;;;;5113716;28;20064;-78
2023/08/04 09:22:43;;;;;;;7.18;2.10;;;18.10;99.90;;;;;;5098417;28;20055;-77
2023/08/04 09:25:09;;;;;;;9.18;2.25;;;18.10;99.90;;;;;;5102030;28;20085;-77
2023/08/04 09:27:41;;;;;;;7.65;2.28;;;18.10;99.90;;;;;;5119182;28;20400;-76
2023/08/04 09:30:08;;;;;;;6.78;2.30;;;18.00;99.90;;;;;;5099476;28;20123;-76
2023/08/04 09:32:45;;;;;;;6.60;2.35;;;17.80;99.90;;;;;;5117411;28;20418;-76
2023/08/04 09:35:11;;;;;;;8.13;2.53;;;17.70;99.90;;;;;;5107452;28;20040;-76
2023/08/04 09:37:38;;;;;;;9.77;2.65;;;17.50;99.90;;;;;;5117457;27;20507;-77
2023/08/04 09:40:16;;;;;;;8.40;2.60;;;17.50;99.90;;;;;;5114072;28;20048;-77
2023/08/04 09:42:42;;;;;;;12.77;3.08;;;17.50;99.90;;;;;;5115804;28;20047;-76
2023/08/04 09:45:12;;;;;;;15.85;3.15;;;17.50;99.90;;;;;;5115535;28;20080;-76
2023/08/04 09:47:37;;;;;;;11.63;3.60;;;17.50;99.90;;;;;;5117668;28;20040;-77
2023/08/04 09:50:09;;;;;;;12.55;3.22;;;17.60;99.90;;;;;;5109490;28;20055;-77
2023/08/04 09:52:35;;;;;;;7.65;3.42;;;17.60;99.90;;;;;;5097032;28;20486;-77
2023/08/04 09:55:01;;;;;;;8.63;3.22;;;17.70;99.90;;;;;;5095587;28;20390;-77
2023/08/04 09:57:27;;;;;;;9.00;2.70;;;17.90;99.90;;;;;;5113983;28;20055;-75
2023/08/04 09:59:53;;;;;;;6.65;2.30;;;18.20;99.90;;;;;;5116570;28;20040;-76
2023/08/04 10:02:19;;;;;;;10.98;3.55;;;18.30;99.90;;;;;;5112343;28;20044;-77
2023/08/04 10:04:50;;;;;;;10.07;2.92;;;18.50;99.90;;;;;;5097102;28;20040;-76
2023/08/04 10:07:18;;;;;;;7.47;1.98;;;18.50;99.90;;;;;;5104180;28;20039;-76
2023/08/04 10:09:45;;;;;;;7.90;2.08;;;18.60;99.90;;;;;;5116178;28;20036;-76
2023/08/04 10:12:12;;;;;;;8.27;2.45;;;18.70;99.90;;;;;;5109955;28;20160;-76
2023/08/04 10:14:38;;;;;;;5.03;1.90;;;18.80;99.90;;;;;;5115987;28;20043;-76
2023/08/04 10:17:05;;;;;;;7.38;1.73;;;18.80;99.90;;;;;;5117610;28;20035;-76
2023/08/04 10:19:32;;;;;;;5.20;1.70;;;18.80;99.90;;;;;;5115784;28;20047;-76
2023/08/04 10:22:09;;;;;;;6.72;1.73;;;18.70;99.90;;;;;;5117096;28;20047;-76
2023/08/04 10:24:37;;;;;;;5.13;1.67;;;18.60;99.90;;;;;;5095672;28;20455;-77
2023/08/04 10:27:13;;;;;;;5.87;1.70;;;18.50;99.90;;;;;;5112036;28;20504;-77
2023/08/04 10:29:40;;;;;;;5.88;1.80;;;18.60;99.90;;;;;;5095701;28;20083;-77
2023/08/04 10:32:09;;;;;;;5.80;1.80;;;18.90;99.90;;;;;;5097463;28;20051;-77
2023/08/04 10:34:41;;;;;;;3.42;1.52;;;19.10;99.90;;;;;;5095532;28;20040;-76
2023/08/04 10:37:15;;;;;;;4.35;1.60;;;19.20;99.90;;;;;;5117070;28;20078;-76
2023/08/04 10:39:56;;;;;;;3.95;1.38;;;19.30;99.90;;;;;;5103202;28;20101;-77
2023/08/04 10:42:26;;;;;;;4.50;1.50;;;19.30;99.90;;;;;;5109072;28;20082;-76
2023/08/04 10:44:52;;;;;;;5.82;1.58;;;19.30;99.90;;;;;;5096383;28;20050;-77
2023/08/04 10:47:46;;;;;;;4.93;1.65;;;19.30;99.90;;;;;;5096635;28;20452;-76
2023/08/04 10:50:14;;;;;;;6.32;1.40;;;19.10;99.90;;;;;;5108677;28;20397;-77
2023/08/04 10:52:40;;;;;;;4.63;1.30;;;19.00;99.90;;;;;;5116587;28;20035;-77
2023/08/04 10:55:09;;;;;;;2.83;1.42;;;18.90;99.90;;;;;;5114526;28;20277;-77
2023/08/04 10:57:37;;;;;;;5.13;1.50;;;18.90;99.90;;;;;;5094413;28;20063;-77
2023/08/04 11:00:07;;;;;;;4.40;1.15;;;18.90;99.90;;;;;;5080538;28;20100;-77
2023/08/04 11:02:34;;;;;;;4.07;1.55;;;19.20;99.90;;;;;;5110659;28;20036;-77
2023/08/04 11:05:02;;;;;;;5.80;1.70;;;19.50;99.90;;;;;;5113195;27;20039;-77
2023/08/04 11:07:29;;;;;;;3.60;1.58;;;19.50;99.90;;;;;;5067576;28;20323;-77
2023/08/04 11:09:55;;;;;;;6.43;1.45;;;19.50;99.90;;;;;;5077250;28;20047;-76
2023/08/04 11:12:21;;;;;;;5.10;1.50;;;19.60;99.90;;;;;;5112175;28;20039;-78
2023/08/04 11:14:49;;;;;;;3.38;1.40;;;19.70;99.90;;;;;;5112419;28;20048;-77
2023/08/04 11:17:20;;;;;;;3.25;1.30;;;19.90;99.90;;;;;;5098285;28;20044;-78
2023/08/04 11:19:50;;;;;;;6.07;1.70;;;20.10;99.90;;;;;;5097550;28;20055;-77
2023/08/04 11:22:23;;;;;;;5.22;2.15;;;20.20;99.90;;;;;;5109093;28;20051;-78
2023/08/04 11:24:51;;;;;;;6.22;1.60;;;20.20;99.90;;;;;;5116421;28;20404;-78
2023/08/04 11:27:17;;;;;;;4.07;1.60;;;20.30;99.90;;;;;;5113105;28;20389;-77
2023/08/04 11:29:43;;;;;;;5.30;1.52;;;20.30;99.90;;;;;;5107787;28;20044;-79
2023/08/04 11:32:26;;;;;;;5.60;1.63;;;20.40;99.90;;;;;;5096774;28;20539;-79
2023/08/04 11:34:55;;;;;;;5.45;1.90;;;20.40;99.90;;;;;;5097578;28;20043;-78
2023/08/04 11:37:22;;;;;;;6.80;1.60;;;20.40;99.90;;;;;;5098141;28;20044;-77
2023/08/04 11:39:48;;;;;;;4.55;1.70;;;20.30;99.90;;;;;;5114590;28;20118;-78
2023/08/04 11:42:15;;;;;;;6.63;1.90;;;20.20;99.90;;;;;;5081965;28;20044;-77
2023/08/04 11:44:44;;;;;;;5.68;1.67;;;20.10;99.90;;;;;;5103755;28;20039;-77
2023/08/04 11:47:13;;;;;;;8.93;1.88;;;19.90;99.90;;;;;;5117730;28;20040;-78
2023/08/04 11:49:40;;;;;;;10.57;2.15;;;19.80;99.90;;;;;;5094112;28;20048;-78
2023/08/04 11:52:09;;;;;;;8.02;1.88;;;19.70;99.90;;;;;;5112521;28;20059;-78
2023/08/04 11:54:36;;;;;;;5.68;1.88;;;19.60;99.90;;;;;;5109041;28;20044;-78
2023/08/04 11:57:02;;;;;;;4.30;1.45;;;19.50;99.90;;;;;;5115946;28;20032;-77
2023/08/04 11:59:28;;;;;;;8.95;2.13;;;19.50;99.90;;;;;;5111310;28;20474;-77
2023/08/04 12:02:08;;;;;;;6.15;1.70;;;19.50;99.90;;;;;;5111552;28;20039;-77
2023/08/04 12:04:34;;;;;;;9.57;2.45;;;19.40;99.90;;;;;;5114089;28;20465;-76
2023/08/04 12:07:01;;;;;;;4.72;1.80;;;19.50;99.90;;;;;;5096591;28;20036;-78
2023/08/04 12:09:27;;;;;;;5.18;1.83;;;19.70;99.90;;;;;;5095134;28;20044;-77
2023/08/04 12:11:53;;;;;;;5.00;1.40;;;19.90;99.90;;;;;;5112483;28;20056;-77
2023/08/04 12:14:20;;;;;;;5.30;1.70;;;20.30;99.90;;;;;;5100073;28;20051;-78
2023/08/04 12:16:55;;;;;;;10.85;2.60;;;20.70;99.90;;;;;;5113991;28;20079;-78
2023/08/04 12:19:23;;;;;;;10.57;1.90;;;20.90;99.90;;;;;;5118493;28;20127;-78
2023/08/04 12:21:50;;;;;;;6.95;1.73;;;20.90;99.90;;;;;;5117043;28;20043;-78
2023/08/04 12:24:16;;;;;;;8.77;2.25;;;20.60;99.90;;;;;;5100756;28;20051;-78
2023/08/04 12:26:42;;;;;;;7.10;2.13;;;20.50;99.90;;;;;;5113179;28;20048;-78
2023/08/04 12:29:09;;;;;;;8.30;2.08;;;20.50;99.90;;;;;;5112718;28;20465;-78
2023/08/04 12:31:35;;;;;;;12.40;2.03;;;20.40;99.90;;;;;;5089052;28;20044;-77
2023/08/04 12:34:01;;;;;;;12.13;1.70;;;20.40;99.90;;;;;;5096458;28;20629;-78
2023/08/04 12:36:27;;;;;;;4.47;1.70;;;20.40;99.90;;;;;;5094722;28;20057;-77
2023/08/04 12:38:53;;;;;;;4.50;1.70;;;20.40;99.90;;;;;;5092919;28;20040;-78
2023/08/04 12:41:18;;;;;;;4.57;1.40;;;20.50;99.90;;;;;;5106202;28;20409;-78
2023/08/04 12:43:44;;;;;;;3.53;1.52;;;20.50;99.90;;;;;;5115819;28;20062;-77